createdAt,value
2023-02-11T09:12:26.826Z,5.79
2023-02-11T09:15:02.989Z,5.78
2023-02-11T09:17:51.265Z,5.83
2023-02-11T09:20:22.317Z,5.87
2023-02-11T09:22:50.056Z,5.84
2023-02-11T09:25:17.478Z,5.86
2023-02-11T09:27:47.101Z,5.88
2023-02-11T09:30:16.341Z,5.92
2023-02-11T09:32:44.179Z,5.92
2023-02-11T09:35:12.362Z,5.95
2023-02-11T09:37:46.268Z,5.98
2023-02-11T09:40:18.596Z,5.97
2023-02-11T09:43:38.023Z,5.96
2023-02-11T09:46:05.789Z,5.99
2023-02-11T09:48:41.928Z,6.02
2023-02-11T09:55:39.340Z,6.07
2023-02-11T09:58:07.129Z,6.08
2023-02-11T10:00:43.114Z,6.10
2023-02-11T10:03:15.714Z,6.13
2023-02-11T10:05:56.282Z,6.14
2023-02-11T10:08:25.736Z,6.17
2023-02-11T10:10:58.196Z,6.21
2023-02-11T10:13:49.086Z,6.21
2023-02-11T10:16:39.679Z,6.22
2023-02-11T10:19:25.077Z,6.22
2023-02-11T10:22:07.012Z,6.24
2023-02-11T10:24:35.297Z,6.23
2023-02-11T10:27:15.054Z,6.24
2023-02-11T10:29:57.495Z,6.25
2023-02-11T10:32:48.569Z,6.26
2023-02-11T10:35:18.318Z,6.30
2023-02-11T10:37:45.528Z,6.27
2023-02-11T10:40:18.698Z,6.27
2023-02-11T10:42:49.384Z,6.31
2023-02-11T10:45:22.205Z,6.31
2023-02-11T10:47:48.824Z,6.30
2023-02-11T10:50:27.657Z,6.33
2023-02-11T10:53:12.365Z,6.34
2023-02-11T10:55:49.010Z,6.40
2023-02-11T10:58:25.546Z,6.40
2023-02-11T11:00:55.206Z,6.39
2023-02-11T11:03:25.301Z,6.40
2023-02-11T11:05:58.456Z,6.42
2023-02-11T11:08:46.686Z,6.46
2023-02-11T11:11:16.150Z,6.46
2023-02-11T11:13:58.246Z,6.48
2023-02-11T11:16:35.129Z,6.47
2023-02-11T11:19:07.536Z,6.45
2023-02-11T11:21:41.222Z,6.47
2023-02-11T11:24:19.932Z,6.46
2023-02-11T11:26:52.895Z,6.49
2023-02-11T11:29:43.395Z,6.50
2023-02-11T11:32:20.716Z,6.51
2023-02-11T11:34:55.595Z,6.47
2023-02-11T11:37:37.064Z,6.51
2023-02-11T11:40:11.420Z,6.54
2023-02-11T11:42:39.784Z,6.51
2023-02-11T11:45:15.163Z,6.52
2023-02-11T11:47:47.653Z,6.57
2023-02-11T11:50:28.985Z,6.58
2023-02-11T11:53:04.511Z,6.58
2023-02-11T11:55:38.691Z,6.58
2023-02-11T11:58:06.926Z,6.55
2023-02-11T12:00:52.357Z,6.58
2023-02-11T12:03:21.782Z,6.61
2023-02-11T12:06:09.485Z,6.62
2023-02-11T12:09:07.898Z,6.63
2023-02-11T12:12:06.280Z,6.65
2023-02-11T12:15:11.719Z,6.65
2023-02-11T12:18:06.604Z,6.66
2023-02-11T12:20:51.669Z,6.70
2023-02-11T12:23:53.319Z,6.71
2023-02-11T12:26:23.443Z,6.71
2023-02-11T12:29:12.995Z,6.69
2023-02-11T12:31:44.072Z,6.69
2023-02-11T12:34:52.821Z,6.70
2023-02-11T12:37:37.823Z,6.73
2023-02-11T12:40:04.353Z,6.75
2023-02-11T12:43:17.409Z,6.75
2023-02-11T12:45:58.354Z,6.74
2023-02-11T12:49:10.462Z,6.81
2023-02-11T12:51:45.990Z,6.81
2023-02-11T12:54:25.478Z,6.83
2023-02-11T12:57:06.748Z,6.82
2023-02-11T12:59:36.334Z,6.83
2023-02-11T13:02:28.416Z,6.84
2023-02-11T13:05:01.076Z,6.86
2023-02-11T13:07:41.712Z,6.87
2023-02-11T13:14:41.050Z,6.89
2023-02-11T13:17:19.878Z,6.94
2023-02-11T13:19:58.554Z,6.92
2023-02-11T13:22:48.667Z,6.95
2023-02-11T13:25:44.176Z,6.96
2023-02-11T13:28:45.554Z,6.98
2023-02-11T13:31:15.996Z,7.06
2023-02-11T13:33:44.325Z,7.00
2023-02-11T13:36:14.665Z,7.01
2023-02-11T13:38:41.830Z,7.03
2023-02-11T13:41:17.466Z,7.07
2023-02-11T13:43:45.214Z,7.09
2023-02-11T13:50:47.784Z,7.16
2023-02-11T13:53:16.183Z,7.19
2023-02-11T13:55:46.123Z,7.23
2023-02-11T13:58:15.414Z,7.27
2023-02-11T14:00:50.197Z,7.24
2023-02-11T14:03:41.868Z,7.29
2023-02-11T14:06:27.253Z,7.24
2023-02-11T14:13:19.627Z,7.37
2023-02-11T14:15:49.703Z,7.37
2023-02-11T14:18:45.587Z,7.40
2023-02-11T14:21:42.666Z,7.45
2023-02-11T14:24:12.960Z,7.46
2023-02-11T14:26:56.690Z,7.49
2023-02-11T14:29:53.804Z,7.53
2023-02-11T14:32:34.936Z,7.51
2023-02-11T14:35:29.561Z,7.53
2023-02-11T14:38:20.812Z,7.51
2023-02-11T14:41:13.620Z,7.53
2023-02-11T14:43:45.368Z,7.59
2023-02-11T14:46:12.022Z,7.63
2023-02-11T14:48:44.721Z,7.63
2023-02-11T14:51:16.068Z,7.65
2023-02-11T14:53:49.988Z,7.67
2023-02-11T14:56:22.431Z,7.67
2023-02-11T14:58:51.821Z,7.66
2023-02-11T15:01:32.571Z,7.65
2023-02-11T15:04:01.283Z,7.65
2023-02-11T15:06:30.850Z,7.68
2023-02-11T15:09:00.942Z,7.74
2023-02-11T15:11:31.766Z,7.72
2023-02-11T15:14:06.927Z,7.72
2023-02-11T15:16:35.026Z,7.71
2023-02-11T15:19:05.254Z,7.73
2023-02-11T15:21:34.256Z,7.74
2023-02-11T15:24:20.410Z,7.73
2023-02-11T15:27:04.657Z,7.69
2023-02-11T15:29:39.899Z,7.73
2023-02-11T15:32:09.531Z,7.66
2023-02-11T15:34:36.471Z,7.69
2023-02-11T15:37:04.370Z,7.69
2023-02-11T15:39:36.718Z,7.66
2023-02-11T15:42:23.264Z,7.69
2023-02-11T15:45:08.925Z,7.68
2023-02-11T15:47:35.920Z,7.69
2023-02-11T15:50:02.959Z,7.67
2023-02-11T15:52:30.131Z,7.66
2023-02-11T15:55:01.543Z,7.66
2023-02-11T15:57:28.905Z,7.62
2023-02-11T15:59:56.296Z,7.64
2023-02-11T16:02:29.970Z,7.63
2023-02-11T16:05:03.757Z,7.61
2023-02-11T16:07:45.279Z,7.61
2023-02-11T16:10:31.269Z,7.63
2023-02-11T16:13:07.028Z,7.65
2023-02-11T16:15:33.860Z,7.66
2023-02-11T16:18:04.134Z,7.67
2023-02-11T16:20:31.019Z,7.63
2023-02-11T16:22:57.742Z,7.64
2023-02-11T16:25:24.320Z,7.63
2023-02-11T16:27:52.881Z,7.64
2023-02-11T16:30:38.255Z,7.62
2023-02-11T16:33:05.466Z,7.62
2023-02-11T16:35:32.389Z,7.61
2023-02-11T16:37:58.930Z,7.60
2023-02-11T16:40:25.501Z,7.58
2023-02-11T16:42:53.371Z,7.57
2023-02-11T16:45:20.028Z,7.56
2023-02-11T16:47:46.841Z,7.53
2023-02-11T16:50:22.223Z,7.51
2023-02-11T16:52:49.207Z,7.51
2023-02-11T16:55:15.927Z,7.49
2023-02-11T16:57:42.500Z,7.50
2023-02-11T17:00:10.330Z,7.47
2023-02-11T17:02:38.559Z,7.45
2023-02-11T17:05:07.681Z,7.45
2023-02-11T17:07:34.275Z,7.43
2023-02-11T17:10:00.918Z,7.42
2023-02-11T17:12:27.657Z,7.40
2023-02-11T17:14:54.336Z,7.39
2023-02-11T17:17:23.515Z,7.38
2023-02-11T17:19:51.106Z,7.39
2023-02-11T17:22:18.456Z,7.36
2023-02-11T17:24:45.013Z,7.33
2023-02-11T17:27:11.924Z,7.32
2023-02-11T17:29:38.528Z,7.31
2023-02-11T17:32:05.218Z,7.29
2023-02-11T17:34:32.429Z,7.27
2023-02-11T17:37:00.149Z,7.26
2023-02-11T17:39:27.530Z,7.25
2023-02-11T17:41:54.113Z,7.25
2023-02-11T17:44:20.714Z,7.25
2023-02-11T17:46:47.367Z,7.21
2023-02-11T17:49:14.061Z,7.22
2023-02-11T17:51:40.876Z,7.20
2023-02-11T17:54:11.122Z,7.18
2023-02-11T17:56:37.840Z,7.18
2023-02-11T17:59:06.226Z,7.17
2023-02-11T18:01:34.070Z,7.14
2023-02-11T18:04:00.954Z,7.12
2023-02-11T18:06:29.071Z,7.11
2023-02-11T18:08:58.033Z,7.09
2023-02-11T18:11:25.844Z,7.09
2023-02-11T18:13:54.479Z,7.09
2023-02-11T18:16:21.960Z,7.09
2023-02-11T18:18:50.165Z,7.09
2023-02-11T18:21:19.877Z,7.03
2023-02-11T18:23:46.985Z,7.08
2023-02-11T18:26:15.592Z,7.04
2023-02-11T18:28:45.308Z,7.07
2023-02-11T18:31:14.088Z,7.03
2023-02-11T18:33:41.637Z,7.02
2023-02-11T18:36:11.059Z,7.01
2023-02-11T18:38:38.472Z,7.00
2023-02-11T18:41:05.532Z,6.98
2023-02-11T18:43:33.701Z,7.00
2023-02-11T18:46:02.300Z,6.99
2023-02-11T18:48:29.152Z,7.00
2023-02-11T18:50:56.368Z,7.00
2023-02-11T18:53:23.664Z,7.01
2023-02-11T18:55:53.153Z,6.99
2023-02-11T18:58:21.250Z,6.99
2023-02-11T19:00:48.817Z,6.99
2023-02-11T19:03:15.983Z,6.99
2023-02-11T19:05:44.143Z,6.98
2023-02-11T19:08:11.119Z,6.98
2023-02-11T19:10:42.879Z,6.97
2023-02-11T19:13:09.768Z,6.96
2023-02-11T19:15:42.068Z,6.97
2023-02-11T19:18:08.860Z,6.94
2023-02-11T19:20:35.501Z,6.94
2023-02-11T19:23:02.037Z,6.93
2023-02-11T19:25:28.592Z,6.95
2023-02-11T19:27:55.151Z,6.94
2023-02-11T19:30:21.821Z,6.91
2023-02-11T19:32:52.446Z,6.92
2023-02-11T19:35:22.021Z,6.93
2023-02-11T19:37:48.718Z,6.92
2023-02-11T19:40:19.197Z,6.91
2023-02-11T19:42:45.754Z,6.90
2023-02-11T19:45:12.562Z,6.91
2023-02-11T19:47:39.331Z,6.91
2023-02-11T19:50:06.635Z,6.90
2023-02-11T19:52:33.235Z,6.89
2023-02-11T19:55:00.785Z,6.89
2023-02-11T19:57:27.305Z,6.91
2023-02-11T19:59:55.039Z,6.88
2023-02-11T20:02:21.729Z,6.89
2023-02-11T20:04:48.523Z,6.88
2023-02-11T20:07:15.158Z,6.86
2023-02-11T20:09:42.559Z,6.88
2023-02-11T20:12:09.794Z,6.89
2023-02-11T20:14:36.497Z,6.89
2023-02-11T20:17:03.375Z,6.89
2023-02-11T20:19:30.685Z,6.87
2023-02-11T20:21:57.415Z,6.89
2023-02-11T20:24:25.329Z,6.87
2023-02-11T20:26:55.309Z,6.87
2023-02-11T20:29:23.452Z,6.89
2023-02-11T20:31:50.666Z,6.89
2023-02-11T20:34:18.133Z,6.90
2023-02-11T20:36:51.531Z,6.88
2023-02-11T20:39:21.604Z,6.89
2023-02-11T20:41:49.076Z,6.88
2023-02-11T20:44:15.764Z,6.89
2023-02-11T20:46:48.259Z,6.87
2023-02-11T20:49:18.949Z,6.85
2023-02-11T20:51:46.153Z,6.83
2023-02-11T20:54:18.204Z,6.83
2023-02-11T20:56:47.728Z,6.85
2023-02-11T20:59:15.148Z,6.83
2023-02-11T21:01:44.678Z,6.86
2023-02-11T21:04:17.438Z,6.86
2023-02-11T21:06:47.351Z,6.86
2023-02-11T21:09:19.909Z,6.86
2023-02-11T21:11:46.891Z,6.85
2023-02-11T21:14:13.921Z,6.88
2023-02-11T21:16:41.247Z,6.86
2023-02-11T21:19:08.018Z,6.86
2023-02-11T21:21:36.263Z,6.87
2023-02-11T21:24:03.329Z,6.86
2023-02-11T21:26:29.944Z,6.85
2023-02-11T21:28:56.801Z,6.85
2023-02-11T21:31:29.161Z,6.84
2023-02-11T21:33:59.271Z,6.82
2023-02-11T21:36:27.746Z,6.83
2023-02-11T21:38:54.570Z,6.84
2023-02-11T21:41:22.492Z,6.83
2023-02-11T21:43:50.252Z,6.82
2023-02-11T21:46:17.627Z,6.84
2023-02-11T21:48:44.449Z,6.82
2023-02-11T21:51:17.439Z,6.82
2023-02-11T21:53:44.376Z,6.82
2023-02-11T21:56:18.400Z,6.81
2023-02-11T21:58:46.309Z,6.82
2023-02-11T22:01:15.780Z,6.83
2023-02-11T22:03:42.989Z,6.82
2023-02-11T22:06:11.572Z,6.80
2023-02-11T22:08:39.535Z,6.80
2023-02-11T22:11:07.741Z,6.80
2023-02-11T22:13:34.753Z,6.80
2023-02-11T22:16:04.586Z,6.81
2023-02-11T22:18:31.762Z,6.79
2023-02-11T22:21:04.380Z,6.81
2023-02-11T22:23:31.087Z,6.80
2023-02-11T22:25:58.723Z,6.78
2023-02-11T22:28:26.141Z,6.80
2023-02-11T22:30:56.955Z,6.78
2023-02-11T22:33:28.022Z,6.80
2023-02-11T22:36:19.197Z,6.79
2023-02-11T22:38:46.657Z,6.79
2023-02-11T22:41:13.436Z,6.77
2023-02-11T22:43:41.578Z,6.78
2023-02-11T22:46:08.757Z,6.77
2023-02-11T22:48:35.836Z,6.78
2023-02-11T22:51:14.947Z,6.78
2023-02-11T22:53:43.674Z,6.78
2023-02-11T22:56:15.844Z,6.78
2023-02-11T22:58:42.886Z,6.76
2023-02-11T23:01:09.752Z,6.77
2023-02-11T23:03:36.615Z,6.77
2023-02-11T23:06:03.441Z,6.78
2023-02-11T23:08:31.061Z,6.76
2023-02-11T23:11:07.055Z,6.75
2023-02-11T23:13:37.866Z,6.77
2023-02-11T23:16:30.703Z,6.76
2023-02-11T23:19:00.330Z,6.75
2023-02-11T23:21:31.381Z,6.75
2023-02-11T23:24:00.677Z,6.77
2023-02-11T23:26:28.659Z,6.79
2023-02-11T23:28:59.026Z,6.78
2023-02-11T23:31:29.547Z,6.75
2023-02-11T23:33:56.613Z,6.75
2023-02-11T23:36:23.535Z,6.75
2023-02-11T23:38:50.726Z,6.76
2023-02-11T23:41:17.656Z,6.78
2023-02-11T23:43:44.892Z,6.78
2023-02-11T23:46:11.772Z,6.76
2023-02-11T23:48:40.302Z,6.76
2023-02-11T23:51:09.532Z,6.75
2023-02-11T23:53:37.691Z,6.74
2023-02-11T23:56:15.838Z,6.74
2023-02-11T23:58:44.657Z,6.75
